sensor_id;sensor_type;location;lat;lon;timestamp;P1;durP1;ratioP1;P2;durP2;ratioP2
76552;SDS011;65395;53.168;18.156;2023-05-23T00:01:07;6.90;;;4.80;;
76552;SDS011;65395;53.168;18.156;2023-05-23T00:03:53;12.60;;;4.70;;
76552;SDS011;65395;53.168;18.156;2023-05-23T00:17:11;6.40;;;4.30;;
76552;SDS011;65395;53.168;18.156;2023-05-23T00:59:42;6.50;;;4.70;;
76552;SDS011;65395;53.168;18.156;2023-05-23T01:02:48;7.40;;;4.60;;
76552;SDS011;65395;53.168;18.156;2023-05-23T01:06:12;7.70;;;5.00;;
76552;SDS011;65395;53.168;18.156;2023-05-23T01:09:17;7.80;;;4.70;;
76552;SDS011;65395;53.168;18.156;2023-05-23T01:15:07;63.80;;;7.70;;
76552;SDS011;65395;53.168;18.156;2023-05-23T01:18:15;37.70;;;6.30;;
76552;SDS011;65395;53.168;18.156;2023-05-23T01:24:29;14.40;;;5.20;;
76552;SDS011;65395;53.168;18.156;2023-05-23T01:37:51;6.90;;;4.80;;
76552;SDS011;65395;53.168;18.156;2023-05-23T01:46:28;8.70;;;5.10;;
76552;SDS011;65395;53.168;18.156;2023-05-23T01:49:15;9.60;;;5.80;;
76552;SDS011;65395;53.168;18.156;2023-05-23T01:52:03;8.80;;;5.60;;
76552;SDS011;65395;53.168;18.156;2023-05-23T02:11:45;17.80;;;5.90;;
76552;SDS011;65395;53.168;18.156;2023-05-23T02:14:31;17.00;;;6.30;;
76552;SDS011;65395;53.168;18.156;2023-05-23T02:17:36;15.10;;;5.80;;
76552;SDS011;65395;53.168;18.156;2023-05-23T02:23:25;15.30;;;6.00;;
76552;SDS011;65395;53.168;18.156;2023-05-23T02:26:29;13.10;;;5.80;;
76552;SDS011;65395;53.168;18.156;2023-05-23T02:29:34;14.50;;;6.50;;
76552;SDS011;65395;53.168;18.156;2023-05-23T02:32:19;15.30;;;6.40;;
76552;SDS011;65395;53.168;18.156;2023-05-23T02:45:35;35.60;;;8.00;;
76552;SDS011;65395;53.168;18.156;2023-05-23T02:48:39;23.50;;;7.00;;
76552;SDS011;65395;53.168;18.156;2023-05-23T02:54:28;17.30;;;6.80;;
76552;SDS011;65395;53.168;18.156;2023-05-23T03:10:47;16.80;;;7.30;;
76552;SDS011;65395;53.168;18.156;2023-05-23T03:20:19;31.10;;;8.20;;
76552;SDS011;65395;53.168;18.156;2023-05-23T03:23:24;32.50;;;9.00;;
76552;SDS011;65395;53.168;18.156;2023-05-23T03:26:29;22.10;;;7.60;;
76552;SDS011;65395;53.168;18.156;2023-05-23T03:28:56;21.10;;;8.00;;
76552;SDS011;65395;53.168;18.156;2023-05-23T03:45:45;18.40;;;7.50;;
76552;SDS011;65395;53.168;18.156;2023-05-23T03:51:37;30.90;;;8.30;;
76552;SDS011;65395;53.168;18.156;2023-05-23T03:54:41;40.00;;;9.40;;
76552;SDS011;65395;53.168;18.156;2023-05-23T03:57:46;37.10;;;8.90;;
76552;SDS011;65395;53.168;18.156;2023-05-23T04:00:31;41.70;;;10.00;;
76552;SDS011;65395;53.168;18.156;2023-05-23T04:11:18;33.60;;;11.70;;
76552;SDS011;65395;53.168;18.156;2023-05-23T04:21:09;26.10;;;12.80;;
76552;SDS011;65395;53.168;18.156;2023-05-23T04:23:55;31.30;;;12.50;;
76552;SDS011;65395;53.168;18.156;2023-05-23T04:26:59;23.80;;;12.40;;
76552;SDS011;65395;53.168;18.156;2023-05-23T04:29:45;29.80;;;12.50;;
76552;SDS011;65395;53.168;18.156;2023-05-23T04:36:14;21.30;;;12.00;;
76552;SDS011;65395;53.168;18.156;2023-05-23T04:38:46;18.60;;;11.70;;
76552;SDS011;65395;53.168;18.156;2023-05-23T04:42:00;17.70;;;11.70;;
76552;SDS011;65395;53.168;18.156;2023-05-23T04:44:52;16.90;;;11.60;;
76552;SDS011;65395;53.168;18.156;2023-05-23T04:51:01;18.30;;;11.40;;
76552;SDS011;65395;53.168;18.156;2023-05-23T05:10:08;16.40;;;11.00;;
76552;SDS011;65395;53.168;18.156;2023-05-23T05:16:17;17.90;;;10.60;;
76552;SDS011;65395;53.168;18.156;2023-05-23T05:19:21;14.10;;;10.60;;
76552;SDS011;65395;53.168;18.156;2023-05-23T05:35:40;12.90;;;10.50;;
76552;SDS011;65395;53.168;18.156;2023-05-23T05:44:37;15.50;;;8.80;;
76552;SDS011;65395;53.168;18.156;2023-05-23T05:51:04;11.70;;;8.30;;
76552;SDS011;65395;53.168;18.156;2023-05-23T05:54:28;11.40;;;8.50;;
76552;SDS011;65395;53.168;18.156;2023-05-23T05:57:32;12.00;;;9.00;;
76552;SDS011;65395;53.168;18.156;2023-05-23T06:00:00;13.20;;;8.30;;
76552;SDS011;65395;53.168;18.156;2023-05-23T06:02:46;64.70;;;10.00;;
76552;SDS011;65395;53.168;18.156;2023-05-23T06:05:37;16.00;;;8.70;;
76552;SDS011;65395;53.168;18.156;2023-05-23T06:08:41;12.40;;;8.20;;
76552;SDS011;65395;53.168;18.156;2023-05-23T06:13:57;9.90;;;7.60;;
76552;SDS011;65395;53.168;18.156;2023-05-23T06:20:06;8.40;;;6.40;;
76552;SDS011;65395;53.168;18.156;2023-05-23T06:22:52;12.10;;;6.70;;
76552;SDS011;65395;53.168;18.156;2023-05-23T06:25:57;14.10;;;6.20;;
76552;SDS011;65395;53.168;18.156;2023-05-23T06:28:43;9.10;;;5.80;;
76552;SDS011;65395;53.168;18.156;2023-05-23T06:41:05;9.10;;;5.70;;
76552;SDS011;65395;53.168;18.156;2023-05-23T06:43:33;6.20;;;5.40;;
76552;SDS011;65395;53.168;18.156;2023-05-23T06:49:24;8.90;;;5.10;;
76552;SDS011;65395;53.168;18.156;2023-05-23T07:03:29;8.80;;;5.30;;
76552;SDS011;65395;53.168;18.156;2023-05-23T07:05:59;6.60;;;5.10;;
76552;SDS011;65395;53.168;18.156;2023-05-23T07:08:26;6.90;;;5.10;;
76552;SDS011;65395;53.168;18.156;2023-05-23T07:10:58;7.20;;;5.20;;
76552;SDS011;65395;53.168;18.156;2023-05-23T07:13:42;9.60;;;5.10;;
76552;SDS011;65395;53.168;18.156;2023-05-23T07:16:13;6.90;;;4.70;;
76552;SDS011;65395;53.168;18.156;2023-05-23T07:18:49;7.30;;;4.70;;
76552;SDS011;65395;53.168;18.156;2023-05-23T07:21:16;8.50;;;4.80;;
76552;SDS011;65395;53.168;18.156;2023-05-23T07:23:44;5.60;;;4.50;;
76552;SDS011;65395;53.168;18.156;2023-05-23T07:26:11;6.70;;;4.40;;
76552;SDS011;65395;53.168;18.156;2023-05-23T07:28:43;7.60;;;4.30;;
76552;SDS011;65395;53.168;18.156;2023-05-23T07:31:10;8.10;;;4.60;;
76552;SDS011;65395;53.168;18.156;2023-05-23T07:33:37;7.00;;;4.40;;
76552;SDS011;65395;53.168;18.156;2023-05-23T07:36:04;7.10;;;4.80;;
76552;SDS011;65395;53.168;18.156;2023-05-23T07:38:31;7.80;;;4.40;;
76552;SDS011;65395;53.168;18.156;2023-05-23T07:40:58;5.20;;;4.30;;
76552;SDS011;65395;53.168;18.156;2023-05-23T07:43:25;5.60;;;4.00;;
76552;SDS011;65395;53.168;18.156;2023-05-23T07:45:51;6.20;;;4.00;;
76552;SDS011;65395;53.168;18.156;2023-05-23T07:48:18;6.10;;;4.10;;
76552;SDS011;65395;53.168;18.156;2023-05-23T07:50:45;5.40;;;3.80;;
76552;SDS011;65395;53.168;18.156;2023-05-23T07:53:12;7.50;;;3.90;;
76552;SDS011;65395;53.168;18.156;2023-05-23T07:55:39;4.90;;;3.50;;
76552;SDS011;65395;53.168;18.156;2023-05-23T07:58:07;5.60;;;3.80;;
76552;SDS011;65395;53.168;18.156;2023-05-23T08:00:34;6.40;;;3.30;;
76552;SDS011;65395;53.168;18.156;2023-05-23T08:03:05;7.50;;;3.50;;
76552;SDS011;65395;53.168;18.156;2023-05-23T08:12:24;5.70;;;3.20;;
76552;SDS011;65395;53.168;18.156;2023-05-23T08:18:16;4.80;;;3.30;;
76552;SDS011;65395;53.168;18.156;2023-05-23T08:21:02;8.10;;;3.30;;
76552;SDS011;65395;53.168;18.156;2023-05-23T08:27:30;5.40;;;3.20;;
76552;SDS011;65395;53.168;18.156;2023-05-23T08:33:29;6.10;;;3.60;;
76552;SDS011;65395;53.168;18.156;2023-05-23T08:36:14;7.90;;;3.70;;
76552;SDS011;65395;53.168;18.156;2023-05-23T08:48:54;5.60;;;3.20;;
76552;SDS011;65395;53.168;18.156;2023-05-23T08:51:41;4.60;;;3.30;;
76552;SDS011;65395;53.168;18.156;2023-05-23T08:58:12;8.20;;;3.40;;
76552;SDS011;65395;53.168;18.156;2023-05-23T09:08:05;7.30;;;3.10;;
76552;SDS011;65395;53.168;18.156;2023-05-23T09:21:04;5.50;;;2.80;;
76552;SDS011;65395;53.168;18.156;2023-05-23T09:30:32;5.70;;;3.30;;
76552;SDS011;65395;53.168;18.156;2023-05-23T09:33:45;6.50;;;3.40;;
76552;SDS011;65395;53.168;18.156;2023-05-23T09:43:20;3.80;;;2.80;;
76552;SDS011;65395;53.168;18.156;2023-05-23T09:49:53;4.30;;;3.00;;
76552;SDS011;65395;53.168;18.156;2023-05-23T09:52:59;5.20;;;3.20;;
76552;SDS011;65395;53.168;18.156;2023-05-23T09:55:26;7.60;;;3.00;;
76552;SDS011;65395;53.168;18.156;2023-05-23T09:57:53;4.30;;;2.90;;
76552;SDS011;65395;53.168;18.156;2023-05-23T10:00:22;5.00;;;2.70;;
76552;SDS011;65395;53.168;18.156;2023-05-23T10:02:54;6.50;;;3.00;;
76552;SDS011;65395;53.168;18.156;2023-05-23T10:05:37;6.20;;;3.80;;
76552;SDS011;65395;53.168;18.156;2023-05-23T10:08:24;5.50;;;3.50;;
76552;SDS011;65395;53.168;18.156;2023-05-23T10:11:33;4.70;;;3.00;;
76552;SDS011;65395;53.168;18.156;2023-05-23T10:13:54;5.20;;;2.80;;
76552;SDS011;65395;53.168;18.156;2023-05-23T10:16:22;8.70;;;3.40;;
76552;SDS011;65395;53.168;18.156;2023-05-23T10:19:01;4.20;;;3.20;;
76552;SDS011;65395;53.168;18.156;2023-05-23T10:21:34;4.20;;;3.10;;
76552;SDS011;65395;53.168;18.156;2023-05-23T10:24:05;5.20;;;3.00;;
76552;SDS011;65395;53.168;18.156;2023-05-23T10:26:33;6.70;;;3.20;;
76552;SDS011;65395;53.168;18.156;2023-05-23T10:29:00;5.20;;;3.00;;
76552;SDS011;65395;53.168;18.156;2023-05-23T10:31:28;4.80;;;3.20;;
76552;SDS011;65395;53.168;18.156;2023-05-23T10:33:57;4.00;;;3.30;;
76552;SDS011;65395;53.168;18.156;2023-05-23T10:36:32;5.30;;;3.40;;
76552;SDS011;65395;53.168;18.156;2023-05-23T10:39:12;3.40;;;2.90;;
76552;SDS011;65395;53.168;18.156;2023-05-23T10:41:50;4.50;;;3.50;;
76552;SDS011;65395;53.168;18.156;2023-05-23T10:44:25;10.20;;;3.00;;
76552;SDS011;65395;53.168;18.156;2023-05-23T10:46:55;7.60;;;3.40;;
76552;SDS011;65395;53.168;18.156;2023-05-23T10:49:37;4.00;;;3.30;;
76552;SDS011;65395;53.168;18.156;2023-05-23T10:52:05;4.10;;;3.10;;
76552;SDS011;65395;53.168;18.156;2023-05-23T10:57:15;3.90;;;3.20;;
76552;SDS011;65395;53.168;18.156;2023-05-23T10:59:43;3.80;;;3.00;;
76552;SDS011;65395;53.168;18.156;2023-05-23T11:02:12;4.40;;;3.40;;
76552;SDS011;65395;53.168;18.156;2023-05-23T11:04:41;6.40;;;3.20;;
76552;SDS011;65395;53.168;18.156;2023-05-23T11:10:31;4.50;;;3.00;;
76552;SDS011;65395;53.168;18.156;2023-05-23T11:16:23;4.90;;;2.90;;
76552;SDS011;65395;53.168;18.156;2023-05-23T11:18:51;6.00;;;3.30;;
76552;SDS011;65395;53.168;18.156;2023-05-23T11:21:18;4.60;;;2.90;;
76552;SDS011;65395;53.168;18.156;2023-05-23T11:23:45;4.60;;;3.50;;
76552;SDS011;65395;53.168;18.156;2023-05-23T11:28:57;3.50;;;3.20;;
76552;SDS011;65395;53.168;18.156;2023-05-23T11:31:24;4.10;;;2.70;;
76552;SDS011;65395;53.168;18.156;2023-05-23T11:33:52;5.40;;;3.20;;
76552;SDS011;65395;53.168;18.156;2023-05-23T11:36:20;8.10;;;3.40;;
76552;SDS011;65395;53.168;18.156;2023-05-23T11:38:49;4.20;;;3.30;;
76552;SDS011;65395;53.168;18.156;2023-05-23T11:41:18;4.50;;;2.80;;
76552;SDS011;65395;53.168;18.156;2023-05-23T11:43:48;8.00;;;2.90;;
76552;SDS011;65395;53.168;18.156;2023-05-23T11:46:17;4.50;;;3.10;;
76552;SDS011;65395;53.168;18.156;2023-05-23T11:48:45;5.50;;;3.10;;
76552;SDS011;65395;53.168;18.156;2023-05-23T11:51:14;3.30;;;2.70;;
76552;SDS011;65395;53.168;18.156;2023-05-23T11:53:41;7.20;;;3.10;;
76552;SDS011;65395;53.168;18.156;2023-05-23T11:56:07;5.80;;;3.00;;
76552;SDS011;65395;53.168;18.156;2023-05-23T11:58:35;3.90;;;2.70;;
76552;SDS011;65395;53.168;18.156;2023-05-23T12:01:04;5.20;;;3.30;;
76552;SDS011;65395;53.168;18.156;2023-05-23T12:03:32;4.70;;;3.10;;
76552;SDS011;65395;53.168;18.156;2023-05-23T12:06:09;3.10;;;2.50;;
76552;SDS011;65395;53.168;18.156;2023-05-23T12:08:36;4.60;;;3.20;;
76552;SDS011;65395;53.168;18.156;2023-05-23T12:11:03;3.10;;;2.70;;
76552;SDS011;65395;53.168;18.156;2023-05-23T12:13:30;4.40;;;3.10;;
76552;SDS011;65395;53.168;18.156;2023-05-23T12:15:58;4.00;;;2.90;;
76552;SDS011;65395;53.168;18.156;2023-05-23T12:18:27;5.50;;;3.10;;
76552;SDS011;65395;53.168;18.156;2023-05-23T12:20:59;10.40;;;2.90;;
76552;SDS011;65395;53.168;18.156;2023-05-23T12:23:28;8.00;;;3.20;;
76552;SDS011;65395;53.168;18.156;2023-05-23T12:25:55;3.30;;;3.00;;
76552;SDS011;65395;53.168;18.156;2023-05-23T12:44:20;5.90;;;2.90;;
76552;SDS011;65395;53.168;18.156;2023-05-23T12:47:24;4.00;;;3.00;;
76552;SDS011;65395;53.168;18.156;2023-05-23T12:50:10;4.10;;;3.00;;
76552;SDS011;65395;53.168;18.156;2023-05-23T12:56:19;5.20;;;2.80;;
76552;SDS011;65395;53.168;18.156;2023-05-23T13:06:11;5.70;;;3.10;;
76552;SDS011;65395;53.168;18.156;2023-05-23T13:09:15;5.70;;;3.20;;
76552;SDS011;65395;53.168;18.156;2023-05-23T13:12:00;7.10;;;3.00;;
76552;SDS011;65395;53.168;18.156;2023-05-23T13:14:45;8.40;;;2.70;;
76552;SDS011;65395;53.168;18.156;2023-05-23T13:20:35;3.40;;;2.80;;
76552;SDS011;65395;53.168;18.156;2023-05-23T13:23:40;4.80;;;3.20;;
76552;SDS011;65395;53.168;18.156;2023-05-23T13:26:25;6.70;;;3.00;;
76552;SDS011;65395;53.168;18.156;2023-05-23T13:29:29;6.40;;;3.20;;
76552;SDS011;65395;53.168;18.156;2023-05-23T13:31:56;6.20;;;3.00;;
76552;SDS011;65395;53.168;18.156;2023-05-23T13:34:24;4.40;;;3.20;;
76552;SDS011;65395;53.168;18.156;2023-05-23T13:36:53;3.40;;;3.00;;
76552;SDS011;65395;53.168;18.156;2023-05-23T13:39:20;4.40;;;3.10;;
76552;SDS011;65395;53.168;18.156;2023-05-23T13:41:48;4.30;;;3.20;;
76552;SDS011;65395;53.168;18.156;2023-05-23T13:44:16;4.30;;;2.80;;
76552;SDS011;65395;53.168;18.156;2023-05-23T13:46:43;5.50;;;3.00;;
76552;SDS011;65395;53.168;18.156;2023-05-23T13:49:10;4.80;;;3.10;;
76552;SDS011;65395;53.168;18.156;2023-05-23T13:51:36;3.50;;;2.90;;
76552;SDS011;65395;53.168;18.156;2023-05-23T13:54:03;3.80;;;2.80;;
76552;SDS011;65395;53.168;18.156;2023-05-23T13:56:31;4.90;;;2.90;;
76552;SDS011;65395;53.168;18.156;2023-05-23T13:58:58;3.40;;;2.90;;
76552;SDS011;65395;53.168;18.156;2023-05-23T14:01:26;7.30;;;3.20;;
76552;SDS011;65395;53.168;18.156;2023-05-23T14:03:53;7.10;;;3.20;;
76552;SDS011;65395;53.168;18.156;2023-05-23T14:06:20;3.60;;;2.90;;
76552;SDS011;65395;53.168;18.156;2023-05-23T14:08:47;5.50;;;3.10;;
76552;SDS011;65395;53.168;18.156;2023-05-23T14:11:14;9.80;;;3.10;;
76552;SDS011;65395;53.168;18.156;2023-05-23T14:13:40;6.10;;;3.10;;
76552;SDS011;65395;53.168;18.156;2023-05-23T14:16:07;4.30;;;3.00;;
76552;SDS011;65395;53.168;18.156;2023-05-23T14:18:34;9.00;;;3.70;;
76552;SDS011;65395;53.168;18.156;2023-05-23T14:21:01;7.60;;;3.20;;
76552;SDS011;65395;53.168;18.156;2023-05-23T14:23:27;5.40;;;2.80;;
76552;SDS011;65395;53.168;18.156;2023-05-23T14:25:54;9.50;;;3.40;;
76552;SDS011;65395;53.168;18.156;2023-05-23T14:28:21;5.40;;;2.90;;
76552;SDS011;65395;53.168;18.156;2023-05-23T14:30:47;5.30;;;3.00;;
76552;SDS011;65395;53.168;18.156;2023-05-23T14:33:14;4.80;;;2.90;;
76552;SDS011;65395;53.168;18.156;2023-05-23T14:35:41;6.10;;;3.00;;
76552;SDS011;65395;53.168;18.156;2023-05-23T14:38:08;4.60;;;3.20;;
76552;SDS011;65395;53.168;18.156;2023-05-23T14:40:35;4.80;;;3.10;;
76552;SDS011;65395;53.168;18.156;2023-05-23T14:43:02;6.50;;;3.00;;
76552;SDS011;65395;53.168;18.156;2023-05-23T14:45:28;3.30;;;2.80;;
76552;SDS011;65395;53.168;18.156;2023-05-23T14:47:55;4.90;;;2.80;;
76552;SDS011;65395;53.168;18.156;2023-05-23T14:50:22;7.50;;;3.30;;
76552;SDS011;65395;53.168;18.156;2023-05-23T14:52:49;4.50;;;3.10;;
76552;SDS011;65395;53.168;18.156;2023-05-23T14:55:15;4.70;;;2.70;;
76552;SDS011;65395;53.168;18.156;2023-05-23T14:57:42;5.70;;;3.10;;
76552;SDS011;65395;53.168;18.156;2023-05-23T15:00:09;5.10;;;2.80;;
76552;SDS011;65395;53.168;18.156;2023-05-23T15:02:37;4.40;;;3.10;;
76552;SDS011;65395;53.168;18.156;2023-05-23T15:05:04;5.40;;;3.20;;
76552;SDS011;65395;53.168;18.156;2023-05-23T15:07:31;4.40;;;3.10;;
76552;SDS011;65395;53.168;18.156;2023-05-23T15:09:58;6.20;;;3.10;;
76552;SDS011;65395;53.168;18.156;2023-05-23T15:12:25;6.60;;;3.10;;
76552;SDS011;65395;53.168;18.156;2023-05-23T15:14:51;6.50;;;3.00;;
76552;SDS011;65395;53.168;18.156;2023-05-23T15:17:18;7.10;;;3.20;;
76552;SDS011;65395;53.168;18.156;2023-05-23T15:19:47;5.70;;;3.10;;
76552;SDS011;65395;53.168;18.156;2023-05-23T15:22:13;4.60;;;3.20;;
76552;SDS011;65395;53.168;18.156;2023-05-23T15:24:40;5.10;;;3.00;;
76552;SDS011;65395;53.168;18.156;2023-05-23T15:27:07;6.10;;;3.00;;
76552;SDS011;65395;53.168;18.156;2023-05-23T15:29:34;6.50;;;3.10;;
76552;SDS011;65395;53.168;18.156;2023-05-23T15:32:05;6.30;;;3.10;;
76552;SDS011;65395;53.168;18.156;2023-05-23T15:34:33;5.70;;;3.00;;
76552;SDS011;65395;53.168;18.156;2023-05-23T15:37:00;6.00;;;3.20;;
76552;SDS011;65395;53.168;18.156;2023-05-23T15:39:27;23.10;;;3.90;;
76552;SDS011;65395;53.168;18.156;2023-05-23T15:41:54;7.00;;;3.20;;
76552;SDS011;65395;53.168;18.156;2023-05-23T15:44:21;7.00;;;2.80;;
76552;SDS011;65395;53.168;18.156;2023-05-23T15:46:48;5.40;;;3.10;;
76552;SDS011;65395;53.168;18.156;2023-05-23T15:49:17;9.60;;;3.10;;
76552;SDS011;65395;53.168;18.156;2023-05-23T15:51:44;10.20;;;3.20;;
76552;SDS011;65395;53.168;18.156;2023-05-23T15:54:11;5.90;;;3.30;;
76552;SDS011;65395;53.168;18.156;2023-05-23T15:56:39;6.20;;;3.20;;
76552;SDS011;65395;53.168;18.156;2023-05-23T15:59:06;8.70;;;3.40;;
76552;SDS011;65395;53.168;18.156;2023-05-23T16:01:33;12.30;;;4.00;;
76552;SDS011;65395;53.168;18.156;2023-05-23T16:04:00;6.20;;;3.20;;
76552;SDS011;65395;53.168;18.156;2023-05-23T16:06:27;5.40;;;3.20;;
76552;SDS011;65395;53.168;18.156;2023-05-23T16:08:54;4.60;;;3.20;;
76552;SDS011;65395;53.168;18.156;2023-05-23T16:11:21;5.20;;;3.40;;
76552;SDS011;65395;53.168;18.156;2023-05-23T16:13:48;4.90;;;3.40;;
76552;SDS011;65395;53.168;18.156;2023-05-23T16:16:15;4.30;;;3.40;;
76552;SDS011;65395;53.168;18.156;2023-05-23T16:18:41;7.70;;;3.70;;
76552;SDS011;65395;53.168;18.156;2023-05-23T16:21:08;3.90;;;3.30;;
76552;SDS011;65395;53.168;18.156;2023-05-23T16:23:35;6.70;;;3.10;;
76552;SDS011;65395;53.168;18.156;2023-05-23T16:26:02;6.30;;;3.40;;
76552;SDS011;65395;53.168;18.156;2023-05-23T16:28:29;7.30;;;3.60;;
76552;SDS011;65395;53.168;18.156;2023-05-23T16:30:55;9.50;;;3.70;;
76552;SDS011;65395;53.168;18.156;2023-05-23T16:33:22;8.90;;;3.20;;
76552;SDS011;65395;53.168;18.156;2023-05-23T16:35:49;9.50;;;3.60;;
76552;SDS011;65395;53.168;18.156;2023-05-23T16:38:16;6.10;;;3.50;;
76552;SDS011;65395;53.168;18.156;2023-05-23T16:40:43;7.10;;;3.70;;
76552;SDS011;65395;53.168;18.156;2023-05-23T16:43:11;5.20;;;4.00;;
76552;SDS011;65395;53.168;18.156;2023-05-23T16:45:38;6.90;;;4.20;;
76552;SDS011;65395;53.168;18.156;2023-05-23T16:48:05;10.50;;;4.50;;
76552;SDS011;65395;53.168;18.156;2023-05-23T16:50:31;10.70;;;4.50;;
76552;SDS011;65395;53.168;18.156;2023-05-23T16:52:58;9.90;;;4.40;;
76552;SDS011;65395;53.168;18.156;2023-05-23T16:55:27;6.00;;;4.30;;
76552;SDS011;65395;53.168;18.156;2023-05-23T16:57:54;9.50;;;4.20;;
76552;SDS011;65395;53.168;18.156;2023-05-23T17:00:21;10.60;;;4.40;;
76552;SDS011;65395;53.168;18.156;2023-05-23T17:02:48;11.00;;;4.00;;
76552;SDS011;65395;53.168;18.156;2023-05-23T17:05:15;12.90;;;4.50;;
76552;SDS011;65395;53.168;18.156;2023-05-23T17:07:42;9.80;;;3.90;;
76552;SDS011;65395;53.168;18.156;2023-05-23T17:10:09;14.30;;;3.90;;
76552;SDS011;65395;53.168;18.156;2023-05-23T17:12:36;7.40;;;3.80;;
76552;SDS011;65395;53.168;18.156;2023-05-23T17:15:03;8.80;;;3.90;;
76552;SDS011;65395;53.168;18.156;2023-05-23T17:17:32;7.10;;;3.90;;
76552;SDS011;65395;53.168;18.156;2023-05-23T17:24:13;7.40;;;3.70;;
76552;SDS011;65395;53.168;18.156;2023-05-23T17:26:40;10.00;;;3.80;;
76552;SDS011;65395;53.168;18.156;2023-05-23T17:29:07;9.60;;;3.80;;
76552;SDS011;65395;53.168;18.156;2023-05-23T17:31:34;6.20;;;3.60;;
76552;SDS011;65395;53.168;18.156;2023-05-23T17:34:01;6.30;;;3.60;;
76552;SDS011;65395;53.168;18.156;2023-05-23T17:36:28;8.10;;;3.90;;
76552;SDS011;65395;53.168;18.156;2023-05-23T17:38:55;31.40;;;4.90;;
76552;SDS011;65395;53.168;18.156;2023-05-23T17:41:22;49.90;;;5.50;;
76552;SDS011;65395;53.168;18.156;2023-05-23T17:43:49;23.50;;;4.60;;
76552;SDS011;65395;53.168;18.156;2023-05-23T17:46:16;7.60;;;4.10;;
76552;SDS011;65395;53.168;18.156;2023-05-23T17:48:43;5.20;;;3.90;;
76552;SDS011;65395;53.168;18.156;2023-05-23T17:51:10;7.50;;;4.70;;
76552;SDS011;65395;53.168;18.156;2023-05-23T17:53:37;9.30;;;4.30;;
76552;SDS011;65395;53.168;18.156;2023-05-23T17:56:06;8.20;;;4.90;;
76552;SDS011;65395;53.168;18.156;2023-05-23T17:58:35;9.40;;;4.80;;
76552;SDS011;65395;53.168;18.156;2023-05-23T18:01:03;10.60;;;4.80;;
76552;SDS011;65395;53.168;18.156;2023-05-23T18:03:31;11.30;;;4.70;;
76552;SDS011;65395;53.168;18.156;2023-05-23T18:05:58;8.40;;;5.30;;
76552;SDS011;65395;53.168;18.156;2023-05-23T18:08:25;17.60;;;5.40;;
76552;SDS011;65395;53.168;18.156;2023-05-23T18:10:52;9.80;;;5.20;;
76552;SDS011;65395;53.168;18.156;2023-05-23T18:13:19;7.20;;;5.10;;
76552;SDS011;65395;53.168;18.156;2023-05-23T18:15:46;10.60;;;5.30;;
76552;SDS011;65395;53.168;18.156;2023-05-23T18:18:14;9.80;;;5.40;;
76552;SDS011;65395;53.168;18.156;2023-05-23T18:20:42;13.00;;;5.80;;
76552;SDS011;65395;53.168;18.156;2023-05-23T18:23:09;9.00;;;5.60;;
76552;SDS011;65395;53.168;18.156;2023-05-23T18:25:37;10.00;;;5.60;;
76552;SDS011;65395;53.168;18.156;2023-05-23T18:28:04;9.00;;;5.40;;
76552;SDS011;65395;53.168;18.156;2023-05-23T18:30:31;12.60;;;5.60;;
76552;SDS011;65395;53.168;18.156;2023-05-23T18:33:01;22.40;;;6.20;;
76552;SDS011;65395;53.168;18.156;2023-05-23T18:35:29;8.60;;;5.70;;
76552;SDS011;65395;53.168;18.156;2023-05-23T18:37:56;6.80;;;5.20;;
76552;SDS011;65395;53.168;18.156;2023-05-23T18:40:23;14.50;;;5.60;;
76552;SDS011;65395;53.168;18.156;2023-05-23T18:42:52;14.50;;;6.40;;
76552;SDS011;65395;53.168;18.156;2023-05-23T18:45:19;9.00;;;5.70;;
76552;SDS011;65395;53.168;18.156;2023-05-23T18:47:46;18.60;;;5.80;;
76552;SDS011;65395;53.168;18.156;2023-05-23T18:50:13;28.70;;;6.60;;
76552;SDS011;65395;53.168;18.156;2023-05-23T18:52:41;21.90;;;6.00;;
76552;SDS011;65395;53.168;18.156;2023-05-23T18:55:08;19.70;;;6.10;;
76552;SDS011;65395;53.168;18.156;2023-05-23T18:57:36;23.30;;;6.40;;
76552;SDS011;65395;53.168;18.156;2023-05-23T19:00:04;19.70;;;5.70;;
76552;SDS011;65395;53.168;18.156;2023-05-23T19:02:32;35.90;;;5.80;;
76552;SDS011;65395;53.168;18.156;2023-05-23T19:05:00;28.70;;;6.20;;
76552;SDS011;65395;53.168;18.156;2023-05-23T19:07:28;11.00;;;5.80;;
76552;SDS011;65395;53.168;18.156;2023-05-23T19:09:58;12.30;;;5.60;;
76552;SDS011;65395;53.168;18.156;2023-05-23T19:12:25;14.30;;;6.30;;
76552;SDS011;65395;53.168;18.156;2023-05-23T19:14:52;14.60;;;6.60;;
76552;SDS011;65395;53.168;18.156;2023-05-23T19:17:19;17.00;;;6.80;;
76552;SDS011;65395;53.168;18.156;2023-05-23T19:19:46;11.90;;;7.00;;
76552;SDS011;65395;53.168;18.156;2023-05-23T19:22:15;10.40;;;6.60;;
76552;SDS011;65395;53.168;18.156;2023-05-23T19:24:42;11.90;;;6.80;;
76552;SDS011;65395;53.168;18.156;2023-05-23T19:27:10;10.40;;;6.50;;
76552;SDS011;65395;53.168;18.156;2023-05-23T19:29:37;10.00;;;6.70;;
76552;SDS011;65395;53.168;18.156;2023-05-23T19:32:04;12.30;;;6.80;;
76552;SDS011;65395;53.168;18.156;2023-05-23T19:34:32;16.30;;;7.30;;
76552;SDS011;65395;53.168;18.156;2023-05-23T19:36:59;22.20;;;7.60;;
76552;SDS011;65395;53.168;18.156;2023-05-23T19:39:26;16.30;;;7.40;;
76552;SDS011;65395;53.168;18.156;2023-05-23T19:41:54;24.30;;;7.40;;
76552;SDS011;65395;53.168;18.156;2023-05-23T19:44:21;25.80;;;7.70;;
76552;SDS011;65395;53.168;18.156;2023-05-23T19:46:48;28.30;;;7.90;;
76552;SDS011;65395;53.168;18.156;2023-05-23T19:49:16;31.60;;;7.80;;
76552;SDS011;65395;53.168;18.156;2023-05-23T19:51:44;26.10;;;7.60;;
76552;SDS011;65395;53.168;18.156;2023-05-23T19:54:12;20.00;;;7.80;;
76552;SDS011;65395;53.168;18.156;2023-05-23T19:56:40;20.10;;;7.80;;
76552;SDS011;65395;53.168;18.156;2023-05-23T19:59:07;17.70;;;7.60;;
76552;SDS011;65395;53.168;18.156;2023-05-23T20:01:33;16.10;;;7.00;;
76552;SDS011;65395;53.168;18.156;2023-05-23T20:04:01;15.90;;;7.40;;
76552;SDS011;65395;53.168;18.156;2023-05-23T20:06:27;23.70;;;7.50;;
76552;SDS011;65395;53.168;18.156;2023-05-23T20:08:55;24.60;;;7.30;;
76552;SDS011;65395;53.168;18.156;2023-05-23T20:11:21;53.40;;;10.10;;
76552;SDS011;65395;53.168;18.156;2023-05-23T20:13:49;51.40;;;9.60;;
76552;SDS011;65395;53.168;18.156;2023-05-23T20:16:16;64.40;;;9.50;;
76552;SDS011;65395;53.168;18.156;2023-05-23T20:18:43;79.30;;;10.30;;
76552;SDS011;65395;53.168;18.156;2023-05-23T20:21:10;59.70;;;9.20;;
76552;SDS011;65395;53.168;18.156;2023-05-23T20:23:37;31.30;;;8.30;;
76552;SDS011;65395;53.168;18.156;2023-05-23T20:26:08;36.00;;;9.40;;
76552;SDS011;65395;53.168;18.156;2023-05-23T20:28:35;25.20;;;8.00;;
76552;SDS011;65395;53.168;18.156;2023-05-23T20:31:03;13.40;;;7.50;;
76552;SDS011;65395;53.168;18.156;2023-05-23T20:33:30;13.20;;;8.00;;
76552;SDS011;65395;53.168;18.156;2023-05-23T20:35:57;16.30;;;8.80;;
76552;SDS011;65395;53.168;18.156;2023-05-23T20:38:24;14.00;;;7.60;;
76552;SDS011;65395;53.168;18.156;2023-05-23T20:40:51;15.60;;;7.80;;
76552;SDS011;65395;53.168;18.156;2023-05-23T20:43:19;15.50;;;7.90;;
76552;SDS011;65395;53.168;18.156;2023-05-23T20:45:48;11.10;;;7.60;;
76552;SDS011;65395;53.168;18.156;2023-05-23T20:48:15;21.80;;;12.00;;
76552;SDS011;65395;53.168;18.156;2023-05-23T20:50:42;18.60;;;10.00;;
76552;SDS011;65395;53.168;18.156;2023-05-23T20:53:09;16.40;;;8.90;;
76552;SDS011;65395;53.168;18.156;2023-05-23T20:55:36;12.70;;;9.20;;
76552;SDS011;65395;53.168;18.156;2023-05-23T20:58:03;15.70;;;9.10;;